Time;durP1;ratioP1;P1;durP2;ratioP2;P2;SDS_P1;SDS_P2;PMS_P1;PMS_P2;Temp;Humidity;BMP_temperature;BMP_pressure;BME280_temperature;BME280_humidity;BME280_pressure;Samples;Min_cycle;Max_cycle;Signal;HPM_P1;HPM_P2
2022/05/10 00:00:25;;;;;;;2.58;1.55;;;5.60;78.10;;;;;;5014170;28;20072;-82
2022/05/10 00:02:54;;;;;;;1.88;1.50;;;5.60;78.00;;;;;;5014100;28;20029;-84
2022/05/10 00:05:27;;;;;;;4.47;1.50;;;5.60;78.10;;;;;;5014231;28;20547;-84
2022/05/10 00:07:54;;;;;;;1.30;1.20;;;5.50;78.00;;;;;;5013717;28;20061;-82
2022/05/10 00:10:20;;;;;;;2.38;1.42;;;5.50;78.00;;;;;;5014205;28;20121;-84
2022/05/10 00:12:46;;;;;;;3.20;1.20;;;5.50;77.80;;;;;;5014637;28;20419;-84
2022/05/10 00:15:12;;;;;;;2.75;1.45;;;5.50;77.50;;;;;;4996183;28;20033;-84
2022/05/10 00:17:40;;;;;;;5.30;1.73;;;5.50;77.50;;;;;;5013907;28;20471;-85
2022/05/10 00:20:13;;;;;;;4.38;1.60;;;5.50;77.50;;;;;;4995952;28;20038;-84
2022/05/10 00:22:39;;;;;;;3.15;1.30;;;5.50;77.40;;;;;;4996340;28;20041;-83
2022/05/10 00:25:08;;;;;;;3.20;1.17;;;5.50;77.40;;;;;;5013457;28;20026;-83
2022/05/10 00:27:34;;;;;;;2.88;1.60;;;5.50;77.20;;;;;;5013705;28;20103;-82
2022/05/10 00:30:00;;;;;;;3.28;2.03;;;5.40;77.10;;;;;;5013465;28;20022;-82
2022/05/10 00:32:31;;;;;;;2.70;1.15;;;5.40;77.10;;;;;;4995580;28;20404;-84
2022/05/10 00:34:58;;;;;;;2.58;1.55;;;5.40;77.30;;;;;;5008881;28;20044;-85
2022/05/10 00:37:24;;;;;;;1.60;1.15;;;5.40;77.30;;;;;;5013221;28;20037;-84
2022/05/10 00:39:50;;;;;;;1.95;1.27;;;5.40;77.20;;;;;;5015334;28;20022;-84
2022/05/10 00:42:24;;;;;;;2.63;1.52;;;5.40;77.00;;;;;;5014389;28;20368;-82
2022/05/10 00:45:04;;;;;;;2.53;1.42;;;5.40;77.00;;;;;;5013944;28;20072;-84
2022/05/10 00:47:43;;;;;;;1.90;1.13;;;5.40;76.90;;;;;;5013222;28;20109;-85
2022/05/10 00:50:15;;;;;;;3.28;1.23;;;5.40;77.00;;;;;;5012978;28;20450;-84
2022/05/10 00:52:48;;;;;;;1.98;1.52;;;5.30;77.00;;;;;;5012692;28;20030;-82
2022/05/10 00:55:27;;;;;;;4.00;1.55;;;5.30;76.90;;;;;;4995026;28;20049;-81
2022/05/10 00:58:11;;;;;;;4.05;1.27;;;5.40;77.00;;;;;;5012640;28;20029;-83
2022/05/10 01:00:38;;;;;;;9.70;1.85;;;5.30;77.00;;;;;;5032129;28;20096;-83
2022/05/10 01:03:24;;;;;;;3.40;1.77;;;5.30;77.10;;;;;;5032131;28;20037;-80
2022/05/10 01:06:05;;;;;;;1.88;1.40;;;5.30;77.20;;;;;;5014331;28;20021;-81
2022/05/10 01:08:55;;;;;;;2.58;1.50;;;5.30;77.30;;;;;;5032468;28;20104;-81
2022/05/10 01:11:33;;;;;;;1.98;1.20;;;5.30;77.40;;;;;;5032761;28;20018;-81
2022/05/10 01:14:14;;;;;;;3.45;1.42;;;5.20;77.40;;;;;;5037217;28;20121;-80
2022/05/10 01:16:40;;;;;;;3.30;1.70;;;5.10;77.60;;;;;;5046946;28;20419;-82
2022/05/10 01:19:06;;;;;;;3.40;2.38;;;5.20;77.70;;;;;;5040979;28;20091;-81
2022/05/10 01:22:05;;;;;;;2.92;1.48;;;5.10;77.80;;;;;;5016739;28;20028;-82
2022/05/10 01:24:43;;;;;;;2.97;1.00;;;5.20;77.90;;;;;;5033318;28;20113;-81
2022/05/10 01:27:12;;;;;;;2.58;1.35;;;5.10;78.00;;;;;;5020185;28;20030;-80
2022/05/10 01:29:46;;;;;;;3.08;1.73;;;5.10;77.90;;;;;;5041518;28;20026;-80
2022/05/10 01:35:06;;;;;;;1.95;1.20;;;5.10;78.40;;;;;;5036574;28;20083;-81
2022/05/10 01:37:37;;;;;;;1.33;1.13;;;5.00;78.50;;;;;;5025265;28;20486;-82
2022/05/10 01:40:16;;;;;;;2.10;1.10;;;5.00;78.50;;;;;;5012218;28;20022;-81
2022/05/10 01:42:51;;;;;;;3.08;1.13;;;5.00;78.70;;;;;;5012194;28;20029;-81
2022/05/10 01:45:34;;;;;;;4.03;1.48;;;5.00;78.80;;;;;;5014367;28;20458;-82
2022/05/10 01:48:03;;;;;;;1.73;1.10;;;5.00;78.90;;;;;;5016370;28;20030;-82
2022/05/10 01:51:00;;;;;;;4.80;1.65;;;5.00;78.90;;;;;;4998492;28;20022;-82
2022/05/10 01:53:33;;;;;;;;;;;5.00;78.90;;;;;;5015666;28;20038;-82
2022/05/10 01:56:06;;;;;;;2.78;1.30;;;4.90;78.70;;;;;;5016135;28;19937;-82
2022/05/10 01:58:35;;;;;;;2.67;1.27;;;4.90;79.00;;;;;;5016000;28;20032;-82
2022/05/10 02:01:09;;;;;;;3.80;1.50;;;4.90;79.20;;;;;;5007026;28;20030;-82
2022/05/10 02:04:07;;;;;;;4.85;1.20;;;4.90;79.20;;;;;;5035629;28;20035;-83
2022/05/10 02:06:46;;;;;;;2.58;1.30;;;4.90;79.00;;;;;;5035784;28;20033;-82
2022/05/10 02:09:37;;;;;;;2.33;1.23;;;4.90;78.80;;;;;;5017985;28;20475;-85
2022/05/10 02:12:18;;;;;;;2.20;1.38;;;4.90;78.80;;;;;;5035796;28;20581;-82
2022/05/10 02:15:05;;;;;;;1.27;1.05;;;5.00;78.80;;;;;;5046050;28;20068;-83
2022/05/10 02:17:42;;;;;;;2.83;1.50;;;5.00;78.60;;;;;;5049666;28;20029;-81
2022/05/10 02:20:28;;;;;;;;;;;5.00;78.50;;;;;;5040700;28;20026;-83
2022/05/10 02:23:20;;;;;;;5.72;1.73;;;5.00;78.30;;;;;;5037057;28;19994;-84
2022/05/10 02:26:01;;;;;;;3.38;1.75;;;5.10;78.40;;;;;;5018251;28;20460;-83
2022/05/10 02:28:55;;;;;;;2.10;1.50;;;5.10;78.20;;;;;;5017943;28;20017;-80
2022/05/10 02:34:34;;;;;;;2.03;1.75;;;5.10;77.70;;;;;;5015151;28;20117;-82
2022/05/10 02:37:00;;;;;;;5.75;1.35;;;5.20;77.60;;;;;;5015218;28;20022;-83
2022/05/10 02:39:26;;;;;;;5.07;1.60;;;5.30;77.40;;;;;;5015197;28;20060;-82
2022/05/10 02:41:54;;;;;;;2.58;1.60;;;5.40;77.30;;;;;;5033272;28;20030;-83
2022/05/10 02:44:20;;;;;;;2.28;1.63;;;5.40;76.70;;;;;;5017469;28;20036;-82
2022/05/10 02:46:46;;;;;;;1.65;1.30;;;5.50;76.60;;;;;;5036054;28;20032;-83
2022/05/10 02:49:11;;;;;;;2.97;1.55;;;5.50;76.00;;;;;;5036723;28;20450;-83
2022/05/10 02:51:37;;;;;;;1.83;1.02;;;5.60;75.80;;;;;;5043080;28;20078;-82
2022/05/10 02:54:03;;;;;;;5.72;1.55;;;5.60;75.40;;;;;;5039526;28;20029;-83
2022/05/10 02:56:30;;;;;;;3.92;1.65;;;5.60;75.50;;;;;;5034028;28;20026;-82
2022/05/10 02:59:09;;;;;;;1.85;1.00;;;5.70;75.50;;;;;;5017456;28;20097;-83
2022/05/10 03:01:37;;;;;;;1.83;1.40;;;5.70;75.30;;;;;;5034498;28;20030;-81
2022/05/10 03:04:05;;;;;;;4.22;1.42;;;5.70;74.80;;;;;;5034970;28;20562;-81
2022/05/10 03:06:31;;;;;;;;;;;5.70;74.80;;;;;;5035348;28;20136;-81
2022/05/10 03:08:58;;;;;;;2.53;1.27;;;5.70;74.90;;;;;;5035036;28;19959;-82
2022/05/10 03:11:25;;;;;;;1.92;1.20;;;5.80;74.80;;;;;;5034572;28;20101;-82
2022/05/10 03:13:52;;;;;;;3.80;1.38;;;5.90;74.50;;;;;;5016933;28;20049;-84
2022/05/10 03:16:18;;;;;;;6.15;1.40;;;5.90;74.20;;;;;;5034615;28;20040;-83
2022/05/10 03:18:45;;;;;;;3.28;1.50;;;6.00;74.00;;;;;;5034477;28;20033;-82
2022/05/10 03:21:12;;;;;;;5.05;1.48;;;6.00;73.80;;;;;;5034569;28;20044;-83
2022/05/10 03:23:38;;;;;;;2.05;1.25;;;6.00;73.50;;;;;;5036217;28;20022;-82
2022/05/10 03:26:04;;;;;;;3.25;1.70;;;6.10;73.30;;;;;;5043017;28;20032;-81
2022/05/10 03:28:30;;;;;;;3.63;1.60;;;6.20;73.10;;;;;;5043750;28;20026;-83
2022/05/10 03:30:56;;;;;;;2.78;1.70;;;6.30;72.70;;;;;;5026453;28;20189;-81
2022/05/10 03:33:22;;;;;;;3.33;1.15;;;6.20;72.50;;;;;;5015397;28;20041;-83
2022/05/10 03:35:48;;;;;;;2.90;1.48;;;6.30;72.40;;;;;;5014374;28;20124;-81
2022/05/10 03:38:14;;;;;;;3.08;1.58;;;6.30;72.20;;;;;;5014199;28;20022;-82
2022/05/10 03:40:39;;;;;;;2.20;1.42;;;6.30;71.90;;;;;;4996689;28;20045;-82
2022/05/10 03:43:08;;;;;;;2.22;1.67;;;6.40;72.10;;;;;;5029098;28;20109;-83
2022/05/10 03:45:34;;;;;;;3.70;2.17;;;6.50;71.80;;;;;;5034239;28;20029;-84
2022/05/10 03:48:00;;;;;;;3.30;1.83;;;6.50;71.40;;;;;;5033863;28;20022;-82
2022/05/10 03:50:26;;;;;;;2.25;1.27;;;6.60;71.50;;;;;;5033904;28;20040;-82
2022/05/10 03:52:52;;;;;;;5.43;1.73;;;6.70;70.30;;;;;;5033884;28;20032;-83
2022/05/10 03:55:24;;;;;;;7.05;2.38;;;6.70;70.10;;;;;;5015927;28;20042;-83
2022/05/10 03:57:52;;;;;;;3.50;2.00;;;6.70;69.90;;;;;;5033497;28;20550;-81
2022/05/10 04:00:25;;;;;;;5.22;1.58;;;6.80;70.00;;;;;;5033657;28;20084;-82
2022/05/10 04:02:52;;;;;;;4.40;1.13;;;6.90;69.90;;;;;;5033737;28;20022;-84
2022/05/10 04:05:19;;;;;;;7.27;1.73;;;7.00;68.10;;;;;;5033344;28;20021;-82
2022/05/10 04:07:45;;;;;;;1.77;1.30;;;7.00;68.80;;;;;;5033058;28;20119;-81
2022/05/10 04:10:13;;;;;;;3.78;1.10;;;7.00;68.00;;;;;;5033911;28;20119;-83
2022/05/10 04:12:40;;;;;;;3.92;1.85;;;7.10;68.10;;;;;;5033315;28;20021;-81
2022/05/10 04:15:09;;;;;;;2.63;1.20;;;7.20;67.90;;;;;;5033134;28;20048;-81
2022/05/10 04:17:34;;;;;;;2.13;1.55;;;7.30;66.70;;;;;;5015482;28;20465;-80
2022/05/10 04:20:00;;;;;;;5.00;1.65;;;7.30;66.30;;;;;;5033715;28;20053;-80
2022/05/10 04:22:26;;;;;;;3.60;1.38;;;7.30;66.40;;;;;;5035363;28;20048;-81
2022/05/10 04:24:52;;;;;;;1.60;1.25;;;7.20;65.90;;;;;;5035237;28;20026;-80
2022/05/10 04:27:18;;;;;;;5.53;1.35;;;7.20;65.40;;;;;;5033640;28;20025;-81
2022/05/10 04:29:43;;;;;;;3.50;1.23;;;7.20;65.20;;;;;;5022339;28;20032;-81
2022/05/10 04:32:09;;;;;;;5.00;1.33;;;7.20;65.70;;;;;;5013517;28;20478;-82
2022/05/10 04:34:35;;;;;;;2.42;1.27;;;7.40;65.40;;;;;;5013055;28;20518;-81
2022/05/10 04:37:01;;;;;;;4.75;1.15;;;7.40;65.30;;;;;;4995088;28;20145;-82
2022/05/10 04:41:24;;;;;;;1.65;1.05;;;7.50;64.90;;;;;;5014126;28;20113;-79
2022/05/10 04:42:15;;;;;;;5.57;1.63;;;7.60;64.30;;;;;;5028947;28;20026;-80
2022/05/10 04:44:41;;;;;;;2.17;1.30;;;7.70;64.70;;;;;;5041296;28;20533;-83
2022/05/10 04:47:07;;;;;;;2.03;1.30;;;8.00;63.40;;;;;;5052377;28;20104;-82
2022/05/10 04:49:32;;;;;;;3.08;1.15;;;8.20;62.30;;;;;;5052397;28;20023;-81
2022/05/10 04:51:58;;;;;;;3.17;1.52;;;8.70;61.10;;;;;;5034839;28;20394;-81
2022/05/10 04:54:24;;;;;;;2.08;1.25;;;9.30;59.90;;;;;;5052654;28;20392;-83
2022/05/10 04:56:50;;;;;;;4.18;1.40;;;9.90;58.50;;;;;;5052374;28;20104;-82
2022/05/10 04:59:17;;;;;;;2.47;0.93;;;10.60;56.00;;;;;;5052373;28;20035;-82
2022/05/10 05:01:42;;;;;;;1.90;1.02;;;11.50;54.80;;;;;;5052704;28;20028;-82
2022/05/10 05:04:08;;;;;;;3.22;1.27;;;12.00;52.30;;;;;;5052626;28;20033;-82
2022/05/10 05:06:37;;;;;;;2.75;1.45;;;12.70;51.20;;;;;;5029771;28;20022;-82
2022/05/10 05:09:03;;;;;;;2.35;1.20;;;13.40;48.60;;;;;;5035653;28;20033;-82
2022/05/10 05:11:29;;;;;;;2.55;1.05;;;13.70;47.20;;;;;;5032172;28;20025;-82
2022/05/10 05:13:55;;;;;;;1.92;0.98;;;14.00;47.00;;;;;;5031922;28;20052;-83
2022/05/10 05:16:21;;;;;;;1.83;1.13;;;14.60;44.90;;;;;;5032385;28;20032;-83
2022/05/10 05:18:47;;;;;;;2.55;1.00;;;14.90;44.90;;;;;;5032028;28;20475;-82
2022/05/10 05:21:12;;;;;;;3.65;1.00;;;15.40;43.40;;;;;;5032536;28;20100;-84
2022/05/10 05:23:38;;;;;;;1.88;1.17;;;15.30;41.90;;;;;;5032463;28;20025;-81
2022/05/10 05:26:05;;;;;;;1.85;0.85;;;14.60;42.10;;;;;;5032062;28;20025;-82
2022/05/10 05:28:31;;;;;;;3.08;1.00;;;14.20;44.30;;;;;;5032053;28;20021;-82
2022/05/10 05:30:58;;;;;;;2.22;1.50;;;14.40;43.50;;;;;;5015083;28;20045;-82
2022/05/10 05:33:24;;;;;;;1.95;1.10;;;14.80;42.50;;;;;;5033546;28;20056;-82
2022/05/10 05:35:50;;;;;;;7.82;2.78;;;15.40;41.30;;;;;;5036202;28;20049;-80
2022/05/10 05:38:16;;;;;;;3.78;0.90;;;15.60;40.40;;;;;;5032625;28;20022;-79
2022/05/10 05:40:42;;;;;;;1.30;1.17;;;15.20;41.10;;;;;;5024266;28;20475;-81
2022/05/10 05:43:15;;;;;;;7.13;1.27;;;15.10;41.80;;;;;;5016558;28;20026;-82
2022/05/10 05:45:50;;;;;;;3.70;1.23;;;15.70;41.30;;;;;;5026592;28;20225;-80
2022/05/10 05:48:17;;;;;;;3.75;1.20;;;16.20;39.40;;;;;;5023794;28;20052;-83
2022/05/10 05:50:44;;;;;;;1.17;0.75;;;16.40;39.10;;;;;;5013201;28;20391;-81
2022/05/10 05:53:09;;;;;;;2.17;0.90;;;16.30;38.70;;;;;;5013041;28;20022;-82
2022/05/10 05:55:35;;;;;;;1.95;0.90;;;15.60;38.60;;;;;;5012439;28;20041;-82
2022/05/10 05:58:01;;;;;;;1.55;1.40;;;15.70;39.80;;;;;;4994848;28;20032;-83
2022/05/10 06:00:28;;;;;;;1.48;0.90;;;16.80;38.50;;;;;;5012308;28;20368;-83
2022/05/10 06:02:54;;;;;;;2.38;0.90;;;17.50;37.30;;;;;;5012497;28;20105;-82
2022/05/10 06:05:22;;;;;;;7.43;1.10;;;17.80;34.70;;;;;;5012551;28;20618;-83
2022/05/10 06:07:48;;;;;;;4.80;1.95;;;17.10;34.80;;;;;;5021928;28;20525;-82
2022/05/10 06:10:14;;;;;;;9.10;1.92;;;17.00;35.70;;;;;;5033295;28;20025;-83
2022/05/10 06:12:41;;;;;;;6.40;1.13;;;17.30;35.60;;;;;;5032152;28;20107;-84
2022/05/10 06:15:11;;;;;;;5.97;2.38;;;16.80;34.20;;;;;;5025316;28;20045;-84
2022/05/10 06:17:40;;;;;;;4.32;1.33;;;15.40;36.20;;;;;;5044584;28;20344;-84
2022/05/10 06:20:09;;;;;;;3.03;1.17;;;15.00;37.70;;;;;;5019478;28;20025;-82
2022/05/10 06:22:35;;;;;;;19.73;2.08;;;14.90;37.80;;;;;;5023555;28;20471;-82
2022/05/10 06:25:00;;;;;;;5.82;1.05;;;15.70;37.10;;;;;;5031571;28;20052;-83
2022/05/10 06:27:27;;;;;;;4.82;1.30;;;15.20;36.80;;;;;;5014207;28;20068;-83
2022/05/10 06:29:53;;;;;;;7.05;1.20;;;15.40;37.50;;;;;;5031632;28;20033;-82
2022/05/10 06:32:25;;;;;;;5.00;1.30;;;15.60;37.10;;;;;;5032652;28;20079;-83
2022/05/10 06:34:50;;;;;;;1.92;1.00;;;15.10;37.50;;;;;;5035385;28;20133;-82
2022/05/10 06:40:08;;;;;;;1.92;1.02;;;13.40;39.20;;;;;;5036224;28;20044;-83
2022/05/10 06:42:34;;;;;;;4.28;1.25;;;13.50;40.50;;;;;;5023782;28;20022;-86
2022/05/10 06:44:59;;;;;;;2.50;1.35;;;13.50;40.50;;;;;;5016313;28;20101;-85
2022/05/10 06:47:25;;;;;;;2.47;0.98;;;13.10;40.80;;;;;;5016138;28;20029;-87
2022/05/10 06:49:51;;;;;;;5.65;1.23;;;12.90;41.30;;;;;;5043504;28;20117;-84
2022/05/10 06:52:18;;;;;;;6.15;1.67;;;12.70;41.90;;;;;;5035438;28;20446;-83
2022/05/10 06:54:44;;;;;;;5.82;1.90;;;12.90;42.00;;;;;;5035020;28;20033;-82
2022/05/10 06:57:10;;;;;;;2.90;1.05;;;12.70;41.90;;;;;;5034811;28;20033;-84
2022/05/10 06:59:36;;;;;;;3.72;1.50;;;12.30;42.30;;;;;;5034981;28;20025;-84
2022/05/10 07:02:02;;;;;;;1.42;0.73;;;11.90;42.70;;;;;;5034936;28;20120;-83
2022/05/10 07:04:28;;;;;;;3.47;1.10;;;11.50;41.50;;;;;;5034618;28;20025;-86
2022/05/10 07:06:54;;;;;;;5.07;1.08;;;11.20;42.40;;;;;;5035123;28;20037;-85
2022/05/10 07:09:20;;;;;;;6.55;1.40;;;10.90;43.00;;;;;;5035071;28;20026;-83
2022/05/10 07:11:48;;;;;;;2.83;0.88;;;10.80;43.70;;;;;;5035387;28;20034;-85
2022/05/10 07:14:14;;;;;;;5.25;1.40;;;10.70;43.70;;;;;;5041666;28;20033;-87
2022/05/10 07:16:40;;;;;;;1.98;1.17;;;10.90;44.00;;;;;;5036652;28;20033;-83
2022/05/10 07:19:06;;;;;;;15.32;2.53;;;11.40;43.80;;;;;;5030846;28;20037;-84
2022/05/10 07:21:31;;;;;;;0.68;0.60;;;11.60;43.10;;;;;;5034859;28;20026;-82
2022/05/10 07:23:57;;;;;;;1.55;0.63;;;11.70;40.80;;;;;;5034092;28;20124;-83
2022/05/10 07:26:23;;;;;;;2.90;0.90;;;11.50;40.10;;;;;;5034536;28;20033;-83
2022/05/10 07:28:49;;;;;;;1.40;0.80;;;11.20;41.00;;;;;;5034730;28;20026;-84
2022/05/10 07:31:15;;;;;;;3.13;1.05;;;11.00;41.40;;;;;;5034429;28;20097;-84
2022/05/10 07:33:41;;;;;;;4.25;1.05;;;11.10;41.70;;;;;;5033699;28;20467;-84
2022/05/10 07:36:25;;;;;;;5.60;1.60;;;11.10;42.10;;;;;;5034146;28;20069;-85
2022/05/10 07:39:11;;;;;;;3.78;1.17;;;11.00;42.90;;;;;;5035849;28;20360;-84
2022/05/10 07:41:38;;;;;;;2.38;1.15;;;11.20;41.90;;;;;;5029138;28;20045;-83
2022/05/10 07:44:05;;;;;;;1.20;0.73;;;11.50;41.50;;;;;;5031752;28;20068;-89
2022/05/10 07:46:31;;;;;;;2.70;1.25;;;11.70;40.60;;;;;;5037745;28;20034;-80
2022/05/10 07:48:57;;;;;;;2.80;0.70;;;11.70;41.00;;;;;;5034839;28;20068;-79
2022/05/10 07:51:23;;;;;;;7.68;1.45;;;12.30;40.60;;;;;;5026446;28;20029;-81
2022/05/10 07:53:49;;;;;;;1.63;0.90;;;12.30;40.80;;;;;;4998133;28;20088;-82
2022/05/10 07:56:15;;;;;;;7.90;1.67;;;12.20;40.50;;;;;;5017138;28;20080;-82
2022/05/10 07:58:42;;;;;;;;;;;12.10;40.70;;;;;;5033912;28;20141;-82
2022/05/10 08:01:08;;;;;;;5.50;1.15;;;12.40;40.10;;;;;;5015940;28;19999;-81
2022/05/10 08:03:34;;;;;;;8.10;1.48;;;12.60;39.40;;;;;;5033695;28;20021;-82
2022/05/10 08:06:00;;;;;;;5.85;1.50;;;13.00;38.20;;;;;;5031650;28;20025;-80
2022/05/10 08:08:29;;;;;;;8.32;1.38;;;13.00;38.10;;;;;;5013976;28;20034;-79
2022/05/10 08:10:56;;;;;;;6.45;1.20;;;12.60;38.70;;;;;;5015639;28;20017;-80
2022/05/10 08:13:27;;;;;;;5.72;1.20;;;12.40;38.70;;;;;;4999673;28;20026;-80
2022/05/10 08:15:57;;;;;;;5.38;1.30;;;12.20;39.70;;;;;;5013362;28;20065;-81
2022/05/10 08:18:24;;;;;;;23.67;3.33;;;12.00;39.00;;;;;;4995728;28;20026;-80
2022/05/10 08:20:51;;;;;;;11.07;2.17;;;11.60;39.80;;;;;;5013314;28;20026;-83
2022/05/10 08:23:23;;;;;;;4.32;1.08;;;11.30;40.80;;;;;;5013603;28;20068;-81
2022/05/10 08:25:49;;;;;;;5.93;1.70;;;11.60;40.10;;;;;;5014653;28;20087;-79
2022/05/10 08:28:15;;;;;;;2.70;1.38;;;12.20;39.50;;;;;;5032942;28;20391;-80
2022/05/10 08:30:44;;;;;;;2.55;1.25;;;13.10;38.50;;;;;;5033156;28;20030;-81
2022/05/10 08:33:10;;;;;;;3.85;1.15;;;13.70;37.40;;;;;;5032761;28;20056;-81
2022/05/10 08:35:37;;;;;;;5.78;2.67;;;14.10;36.90;;;;;;5031136;28;20060;-80
2022/05/10 08:38:04;;;;;;;3.80;1.10;;;14.20;36.50;;;;;;5032749;28;20495;-81
2022/05/10 08:40:34;;;;;;;3.65;1.70;;;13.60;36.70;;;;;;5017558;28;20022;-79
2022/05/10 08:43:04;;;;;;;2.35;1.20;;;12.90;37.80;;;;;;5012619;28;20022;-83
2022/05/10 08:45:36;;;;;;;4.97;1.30;;;12.40;38.30;;;;;;5021121;28;20497;-80
2022/05/10 08:48:02;;;;;;;4.00;1.27;;;12.30;37.80;;;;;;5032065;28;20096;-81
2022/05/10 08:50:29;;;;;;;8.82;1.65;;;12.40;37.30;;;;;;5032121;28;20026;-80
2022/05/10 08:52:55;;;;;;;4.88;1.20;;;12.40;36.90;;;;;;5032312;28;20102;-80
2022/05/10 08:55:27;;;;;;;16.17;2.65;;;12.50;36.50;;;;;;5031298;28;20041;-79
2022/05/10 08:58:13;;;;;;;5.65;1.67;;;12.40;36.80;;;;;;5022038;28;20056;-81
2022/05/10 09:00:45;;;;;;;6.85;1.30;;;12.40;37.50;;;;;;5010968;28;20098;-85
2022/05/10 09:03:40;;;;;;;7.40;1.63;;;12.00;37.40;;;;;;5014654;28;20691;-82
2022/05/10 09:06:34;;;;;;;3.33;1.58;;;11.80;37.90;;;;;;5006184;28;20061;-83
2022/05/10 09:09:21;;;;;;;6.82;2.20;;;11.70;38.20;;;;;;5002489;28;20068;-82
2022/05/10 09:11:55;;;;;;;5.85;2.10;;;11.50;38.40;;;;;;5029144;28;20025;-81
2022/05/10 09:14:32;;;;;;;3.65;1.50;;;11.40;38.20;;;;;;5030985;28;20041;-81
2022/05/10 09:16:59;;;;;;;4.35;1.20;;;11.50;38.10;;;;;;5028439;28;20018;-84
2022/05/10 09:19:40;;;;;;;7.53;1.65;;;11.30;37.10;;;;;;5026547;28;20048;-82
2022/05/10 09:22:22;;;;;;;2.83;1.23;;;11.20;37.60;;;;;;5030999;28;20025;-80
2022/05/10 09:24:53;;;;;;;3.78;1.63;;;11.10;37.50;;;;;;5040963;28;20061;-81
2022/05/10 09:27:24;;;;;;;5.70;1.67;;;11.00;37.90;;;;;;5014330;28;20048;-80
2022/05/10 09:29:52;;;;;;;4.25;1.42;;;11.00;38.40;;;;;;5029310;28;20514;-81
2022/05/10 09:35:16;;;;;;;4.75;0.82;;;11.30;38.50;;;;;;5031152;28;20115;-79
2022/05/10 09:37:59;;;;;;;7.25;1.13;;;11.60;38.00;;;;;;5034937;28;20068;-82
2022/05/10 09:40:34;;;;;;;1.70;0.82;;;11.70;38.10;;;;;;5032183;28;20026;-81
2022/05/10 09:43:18;;;;;;;4.38;1.52;;;11.90;37.60;;;;;;5032776;28;20105;-84
2022/05/10 09:45:44;;;;;;;3.08;1.20;;;12.00;37.90;;;;;;5032340;28;20041;-81
2022/05/10 09:48:17;;;;;;;3.65;1.10;;;12.00;37.90;;;;;;5032941;28;20475;-84
2022/05/10 09:50:44;;;;;;;10.10;2.22;;;11.80;38.70;;;;;;5029066;28;20038;-91
2022/05/10 09:53:13;;;;;;;2.97;1.40;;;11.60;38.70;;;;;;5035912;28;20021;-89
2022/05/10 09:55:54;;;;;;;5.38;1.42;;;11.40;39.20;;;;;;5026215;28;20037;-90
2022/05/10 09:58:26;;;;;;;1.83;1.10;;;11.20;39.70;;;;;;5050054;28;20036;-87
2022/05/10 10:00:56;;;;;;;3.75;1.15;;;11.00;39.80;;;;;;5044879;28;20081;-87
2022/05/10 10:03:25;;;;;;;2.75;1.20;;;10.80;39.90;;;;;;5045479;28;20026;-88
2022/05/10 10:05:51;;;;;;;4.47;1.52;;;10.70;40.10;;;;;;5015286;28;20026;-87
2022/05/10 10:08:16;;;;;;;8.93;1.98;;;10.60;40.60;;;;;;5045612;28;20048;-87
2022/05/10 10:10:42;;;;;;;3.50;1.35;;;10.70;40.60;;;;;;5024723;28;20025;-85
2022/05/10 10:13:37;;;;;;;6.70;1.45;;;10.80;40.50;;;;;;5033441;28;20026;-88
2022/05/10 10:16:28;;;;;;;4.95;1.30;;;10.80;40.70;;;;;;4998081;28;20045;-84
2022/05/10 10:18:59;;;;;;;3.83;1.35;;;10.80;40.70;;;;;;5019908;28;20073;-84
2022/05/10 10:21:48;;;;;;;5.50;1.48;;;10.90;41.00;;;;;;5019327;28;20495;-85
2022/05/10 10:24:32;;;;;;;3.90;1.10;;;10.80;41.40;;;;;;5017690;28;20054;-86
2022/05/10 10:27:03;;;;;;;4.88;1.25;;;10.80;41.10;;;;;;5016491;28;20030;-87
2022/05/10 10:29:55;;;;;;;1.30;1.20;;;10.70;40.90;;;;;;5028137;28;20060;-86
2022/05/10 10:32:28;;;;;;;4.57;0.98;;;10.60;41.40;;;;;;5058890;28;20047;-91
2022/05/10 10:35:22;;;;;;;11.10;1.90;;;10.60;41.50;;;;;;5050426;28;20407;-81
2022/05/10 10:38:11;;;;;;;2.45;1.10;;;10.50;42.10;;;;;;5014870;28;20033;-88
2022/05/10 10:40:42;;;;;;;3.28;1.52;;;10.40;42.30;;;;;;5041348;28;20037;-89
2022/05/10 10:43:40;;;;;;;6.97;1.55;;;10.30;42.80;;;;;;5062908;28;20024;-88
2022/05/10 10:46:18;;;;;;;5.57;1.70;;;10.20;42.90;;;;;;5048926;28;20059;-85
2022/05/10 10:48:54;;;;;;;;;;;10.20;43.00;;;;;;5044026;28;20104;-86
2022/05/10 10:51:23;;;;;;;4.18;1.00;;;10.20;42.80;;;;;;5039369;28;19905;-85
2022/05/10 10:53:50;;;;;;;4.78;1.55;;;10.10;43.10;;;;;;5039647;28;20041;-86
2022/05/10 10:56:19;;;;;;;3.30;1.53;;;10.10;43.10;;;;;;5038754;28;20034;-87
2022/05/10 10:59:09;;;;;;;9.02;1.67;;;10.20;43.20;;;;;;5019968;28;20329;-87
2022/05/10 11:02:04;;;;;;;7.72;2.00;;;10.20;43.00;;;;;;5045316;28;20025;-82
2022/05/10 11:04:46;;;;;;;4.82;1.05;;;10.20;43.20;;;;;;5050546;28;20017;-79
2022/05/10 11:07:33;;;;;;;5.47;1.73;;;10.10;43.30;;;;;;5028307;28;20899;-85
2022/05/10 11:10:10;;;;;;;8.20;2.25;;;10.10;44.30;;;;;;5037520;28;20029;-88
2022/05/10 11:13:08;;;;;;;4.88;1.73;;;10.20;43.70;;;;;;5037314;28;20025;-89
2022/05/10 11:15:40;;;;;;;4.78;1.70;;;10.20;43.80;;;;;;5042381;28;20102;-86
2022/05/10 11:18:26;;;;;;;7.05;0.98;;;10.20;43.80;;;;;;5034630;28;20030;-81
2022/05/10 11:21:19;;;;;;;4.67;2.23;;;10.10;44.10;;;;;;5030393;28;20097;-86
2022/05/10 11:23:56;;;;;;;3.92;1.77;;;10.00;44.40;;;;;;5016797;28;20087;-87
2022/05/10 11:26:28;;;;;;;6.45;1.77;;;9.90;45.90;;;;;;4999341;28;20034;-88
2022/05/10 11:29:23;;;;;;;5.32;1.38;;;9.70;47.10;;;;;;4997871;28;20030;-84
2022/05/10 11:32:16;;;;;;;16.80;3.20;;;9.70;47.70;;;;;;5015415;28;20029;-85
2022/05/10 11:35:00;;;;;;;33.03;5.05;;;9.60;48.00;;;;;;5014814;28;20034;-85
2022/05/10 11:37:39;;;;;;;2.67;1.45;;;9.60;49.40;;;;;;5026911;28;20113;-87
2022/05/10 11:40:37;;;;;;;8.10;1.45;;;9.30;54.40;;;;;;4977423;28;20035;-82
2022/05/10 11:43:08;;;;;;;4.60;1.13;;;8.80;56.90;;;;;;4973159;28;20054;-85
2022/05/10 11:45:55;;;;;;;2.97;1.35;;;8.50;57.60;;;;;;4973468;28;20066;-83
2022/05/10 11:48:58;;;;;;;6.53;1.85;;;8.40;58.90;;;;;;4974218;28;20031;-83
2022/05/10 11:51:38;;;;;;;4.18;1.60;;;8.20;60.00;;;;;;4960192;28;20023;-83
2022/05/10 11:54:28;;;;;;;2.97;1.30;;;7.90;64.20;;;;;;4973514;28;20030;-83
2022/05/10 11:56:55;;;;;;;4.47;1.40;;;7.70;66.00;;;;;;4987731;28;20101;-85
2022/05/10 11:59:24;;;;;;;3.30;1.40;;;7.60;66.40;;;;;;4992431;28;20413;-83
2022/05/10 12:01:53;;;;;;;2.85;1.63;;;7.60;67.90;;;;;;4993075;28;20058;-84
2022/05/10 12:04:39;;;;;;;2.53;1.23;;;7.60;67.60;;;;;;4992256;28;20039;-82
2022/05/10 12:07:19;;;;;;;2.90;2.00;;;7.60;68.70;;;;;;4986337;28;20030;-88
2022/05/10 12:09:51;;;;;;;5.80;2.10;;;7.60;68.20;;;;;;4975609;28;20042;-86
2022/05/10 12:12:32;;;;;;;3.35;1.90;;;7.60;68.40;;;;;;4976516;28;20091;-86
2022/05/10 12:24:11;;;;;;;5.53;1.70;;;8.00;69.00;;;;;;5025070;28;20044;-85
2022/05/10 12:26:46;;;;;;;6.10;2.47;;;8.20;66.80;;;;;;5018874;28;20109;-86
2022/05/10 12:29:37;;;;;;;8.32;2.40;;;8.40;66.30;;;;;;5017261;28;20033;-87
2022/05/10 12:32:09;;;;;;;5.45;1.95;;;8.50;64.90;;;;;;5001841;28;20018;-85
2022/05/10 12:34:43;;;;;;;7.93;2.20;;;8.70;64.30;;;;;;5031436;28;20384;-89
2022/05/10 12:37:44;;;;;;;2.97;1.85;;;8.90;62.90;;;;;;5041316;28;20049;-92
2022/05/10 12:40:10;;;;;;;6.80;2.92;;;9.00;62.90;;;;;;4969773;29;20035;-91
2022/05/10 12:43:08;;;;;;;6.57;1.92;;;9.00;63.00;;;;;;4964236;29;20063;-93
2022/05/10 12:46:13;;;;;;;5.03;1.58;;;9.00;62.30;;;;;;4888164;29;20048;-92
2022/05/10 12:49:16;;;;;;;3.85;1.90;;;9.10;62.10;;;;;;4889306;29;20079;-94
2022/05/10 12:52:13;;;;;;;3.83;1.80;;;9.30;61.80;;;;;;4890209;29;20029;-94
2022/05/10 12:54:42;;;;;;;7.32;1.92;;;9.40;60.80;;;;;;4894812;29;20091;-91
2022/05/10 12:57:13;;;;;;;7.97;1.73;;;9.50;61.00;;;;;;4906660;29;20043;-89
2022/05/10 12:59:53;;;;;;;6.95;2.15;;;9.60;59.30;;;;;;4901374;29;20132;-90
2022/05/10 13:02:20;;;;;;;5.47;2.00;;;9.70;59.10;;;;;;4899774;29;20530;-81
2022/05/10 13:04:55;;;;;;;4.80;2.22;;;9.90;58.00;;;;;;4896190;29;20040;-81
2022/05/10 13:08:09;;;;;;;7.43;2.08;;;10.00;57.20;;;;;;4883723;29;20043;-81
2022/05/10 13:10:36;;;;;;;7.13;2.25;;;10.00;56.00;;;;;;4881011;29;20049;-79
2022/05/10 13:13:07;;;;;;;4.97;1.88;;;9.90;56.00;;;;;;4866750;29;20040;-83
2022/05/10 13:15:41;;;;;;;3.47;1.65;;;9.90;55.90;;;;;;4911463;29;20587;-87
2022/05/10 13:18:12;;;;;;;4.47;1.65;;;10.00;55.50;;;;;;4933089;29;20148;-85
2022/05/10 13:20:50;;;;;;;4.97;1.80;;;10.10;54.80;;;;;;4917911;29;20127;-83
2022/05/10 13:23:18;;;;;;;5.15;2.10;;;10.20;54.50;;;;;;4999292;28;20041;-82
2022/05/10 13:25:44;;;;;;;7.47;2.20;;;10.30;53.60;;;;;;5028054;28;20105;-86
2022/05/10 13:28:17;;;;;;;6.35;2.28;;;10.50;53.00;;;;;;5025563;28;20460;-86
2022/05/10 13:30:46;;;;;;;2.60;1.65;;;10.60;52.40;;;;;;5013590;28;20030;-85
2022/05/10 13:33:30;;;;;;;7.18;2.75;;;10.90;51.30;;;;;;5022564;28;20486;-86
2022/05/10 13:36:02;;;;;;;8.63;1.65;;;11.20;49.40;;;;;;5033368;28;20548;-85
2022/05/10 13:38:33;;;;;;;6.22;1.88;;;11.40;47.10;;;;;;5030638;28;20033;-87
2022/05/10 13:41:03;;;;;;;4.22;1.48;;;11.70;46.70;;;;;;5044369;28;20033;-85